createdAt,value
2022-12-11T00:02:04.772Z,100796.38
2022-12-11T00:04:32.277Z,100806.69
2022-12-11T00:06:59.026Z,100806.16
2022-12-11T00:09:25.855Z,100797.25
2022-12-11T00:11:52.653Z,100808.28
2022-12-11T00:14:19.364Z,100806.84
2022-12-11T00:16:47.982Z,100798.88
2022-12-11T00:19:15.566Z,100800.56
2022-12-11T00:21:42.506Z,100795.75
2022-12-11T00:24:09.306Z,100798.69
2022-12-11T00:26:36.046Z,100798.28
2022-12-11T00:29:02.877Z,100798.97
2022-12-11T00:31:29.672Z,100804.69
2022-12-11T00:33:56.457Z,100800.41
2022-12-11T00:36:26.902Z,100796.22
2022-12-11T00:38:55.346Z,100801.31
2022-12-11T00:41:22.353Z,100796.47
2022-12-11T00:43:49.298Z,100796.47
2022-12-11T00:46:16.481Z,100794.84
2022-12-11T00:48:43.306Z,100787.81
2022-12-11T00:51:10.841Z,100799.06
2022-12-11T00:53:38.755Z,100795.66
2022-12-11T00:56:17.220Z,100806.84
2022-12-11T00:58:44.620Z,100797.19
2022-12-11T01:01:15.624Z,100791.91
2022-12-11T01:03:42.634Z,100796.38
2022-12-11T01:06:14.237Z,100786.09
2022-12-11T01:08:44.205Z,100782.34
2022-12-11T01:11:20.380Z,100779.50
2022-12-11T01:13:47.181Z,100783.66
2022-12-11T01:16:15.950Z,100784.78
2022-12-11T01:18:43.994Z,100785.50
2022-12-11T01:21:13.380Z,100793.97
2022-12-11T01:23:40.814Z,100791.56
2022-12-11T01:26:15.476Z,100791.38
2022-12-11T01:28:42.783Z,100789.03
2022-12-11T01:31:11.030Z,100787.31
2022-12-11T01:33:38.972Z,100785.22
2022-12-11T01:36:14.420Z,100785.44
2022-12-11T01:38:41.642Z,100789.41
2022-12-11T01:41:09.220Z,100794.63
2022-12-11T01:43:55.826Z,100792.81
2022-12-11T01:46:22.624Z,100788.94
2022-12-11T01:48:49.390Z,100789.19
2022-12-11T01:51:16.680Z,100801.19
2022-12-11T01:53:46.470Z,100805.97
2022-12-11T01:56:13.326Z,100805.34
2022-12-11T01:58:48.090Z,100804.88
2022-12-11T02:01:19.153Z,100801.84
2022-12-11T02:03:45.899Z,100794.69
2022-12-11T02:06:48.859Z,100801.22
2022-12-11T02:09:21.048Z,100796.56
2022-12-11T02:12:00.088Z,100801.31
2022-12-11T02:14:41.573Z,100796.34
2022-12-11T02:17:20.248Z,100797.09
2022-12-11T02:19:55.810Z,100792.78
2022-12-11T02:22:41.641Z,100792.41
2022-12-11T02:25:15.108Z,100790.53
2022-12-11T02:27:46.316Z,100782.66
2022-12-11T02:30:15.997Z,100784.38
2022-12-11T02:32:58.372Z,100781.97
2022-12-11T02:35:35.062Z,100788.66
2022-12-11T02:38:09.544Z,100778.56
2022-12-11T02:40:39.528Z,100780.25
2022-12-11T02:43:10.552Z,100766.41
2022-12-11T02:45:39.375Z,100773.38
2022-12-11T02:48:08.586Z,100765.03
2022-12-11T02:50:38.123Z,100769.09
2022-12-11T02:53:06.573Z,100768.03
2022-12-11T02:55:34.047Z,100767.66
2022-12-11T02:58:16.020Z,100760.72
2022-12-11T03:00:44.867Z,100766.44
2022-12-11T03:03:12.432Z,100762.66
2022-12-11T03:05:39.897Z,100760.94
2022-12-11T03:08:06.743Z,100752.47
2022-12-11T03:10:33.662Z,100741.69
2022-12-11T03:13:00.842Z,100744.75
2022-12-11T03:15:36.664Z,100737.13
2022-12-11T03:18:15.242Z,100734.75
2022-12-11T03:20:48.028Z,100731.81
2022-12-11T03:23:21.672Z,100742.16
2022-12-11T03:25:57.981Z,100745.69
2022-12-11T03:28:29.942Z,100741.41
2022-12-11T03:30:57.227Z,100738.81
2022-12-11T03:33:28.173Z,100736.63
2022-12-11T03:35:57.726Z,100741.03
2022-12-11T03:38:28.766Z,100731.31
2022-12-11T03:40:58.859Z,100729.66
2022-12-11T03:43:26.921Z,100727.59
2022-12-11T03:45:54.482Z,100727.44
2022-12-11T03:48:21.601Z,100730.75
2022-12-11T03:50:49.089Z,100716.25
2022-12-11T03:53:17.015Z,100722.28
2022-12-11T03:55:43.871Z,100714.06
2022-12-11T03:58:11.082Z,100716.59
2022-12-11T04:00:38.134Z,100707.22
2022-12-11T04:03:14.453Z,100709.88
2022-12-11T04:05:49.354Z,100709.69
2022-12-11T04:08:17.589Z,100709.50
2022-12-11T04:10:44.645Z,100706.31
2022-12-11T04:13:11.637Z,100704.19
2022-12-11T04:15:40.364Z,100697.28
2022-12-11T04:18:29.166Z,100691.28
2022-12-11T04:21:14.954Z,100691.63
2022-12-11T04:24:00.399Z,100695.19
2022-12-11T04:26:27.520Z,100681.97
2022-12-11T04:28:54.373Z,100682.22
2022-12-11T04:31:22.557Z,100684.47
2022-12-11T04:33:49.890Z,100687.16
2022-12-11T04:36:17.105Z,100681.34
2022-12-11T04:38:43.760Z,100686.09
2022-12-11T04:41:14.601Z,100691.72
2022-12-11T04:43:41.974Z,100680.84
2022-12-11T04:46:11.234Z,100684.31
2022-12-11T04:48:38.749Z,100688.63
2022-12-11T04:51:06.114Z,100685.84
2022-12-11T04:53:33.316Z,100686.88
2022-12-11T04:56:00.040Z,100675.72
2022-12-11T04:58:27.855Z,100687.56
2022-12-11T05:00:54.684Z,100687.69
2022-12-11T05:03:21.624Z,100680.31
2022-12-11T05:05:53.153Z,100686.03
2022-12-11T05:08:20.866Z,100687.91
2022-12-11T05:10:58.509Z,100681.25
2022-12-11T05:13:25.606Z,100684.63
2022-12-11T05:15:52.353Z,100682.25
2022-12-11T05:18:19.283Z,100688.19
2022-12-11T05:20:45.947Z,100684.97
2022-12-11T05:23:13.104Z,100675.63
2022-12-11T05:25:39.891Z,100676.03
2022-12-11T05:28:06.808Z,100669.94
2022-12-11T05:30:33.584Z,100674.13
2022-12-11T05:33:00.504Z,100672.22
2022-12-11T05:35:27.376Z,100667.63
2022-12-11T05:37:54.159Z,100661.19
2022-12-11T05:40:21.657Z,100663.66
2022-12-11T05:42:48.558Z,100666.50
2022-12-11T05:45:15.525Z,100665.97
2022-12-11T05:47:42.492Z,100662.53
2022-12-11T05:50:10.999Z,100667.69
2022-12-11T05:52:37.844Z,100657.88
2022-12-11T05:55:04.796Z,100666.84
2022-12-11T05:57:31.635Z,100665.44
2022-12-11T05:59:58.324Z,100661.34
2022-12-11T06:02:25.298Z,100663.47
2022-12-11T06:04:52.185Z,100662.59
2022-12-11T06:07:18.938Z,100667.06
2022-12-11T06:09:45.656Z,100665.59
2022-12-11T06:12:12.438Z,100670.88
2022-12-11T06:14:39.425Z,100672.66
2022-12-11T06:17:06.205Z,100666.19
2022-12-11T06:19:36.756Z,100671.06
2022-12-11T06:22:04.318Z,100666.81
2022-12-11T06:24:31.183Z,100662.38
2022-12-11T06:26:58.346Z,100659.41
2022-12-11T06:29:25.110Z,100656.88
2022-12-11T06:31:51.900Z,100661.03
2022-12-11T06:34:18.799Z,100660.44
2022-12-11T06:36:45.488Z,100646.66
2022-12-11T06:39:12.333Z,100653.16
2022-12-11T06:41:39.161Z,100660.88
2022-12-11T06:44:05.899Z,100656.88
2022-12-11T06:46:32.590Z,100646.28
2022-12-11T06:48:59.462Z,100653.69
2022-12-11T06:51:26.482Z,100650.50
2022-12-11T06:53:55.616Z,100652.19
2022-12-11T06:56:24.055Z,100655.47
2022-12-11T06:58:51.998Z,100655.03
2022-12-11T07:01:22.967Z,100662.06
2022-12-11T07:03:50.082Z,100662.69
2022-12-11T07:06:16.836Z,100663.81
2022-12-11T07:08:43.845Z,100663.06
2022-12-11T07:11:12.842Z,100669.09
2022-12-11T07:13:40.514Z,100665.00
2022-12-11T07:16:11.085Z,100665.00
2022-12-11T07:18:43.867Z,100670.75
2022-12-11T07:21:13.076Z,100670.47
2022-12-11T07:23:40.290Z,100675.09
2022-12-11T07:26:09.708Z,100670.63
2022-12-11T07:28:36.673Z,100676.50
2022-12-11T07:31:11.157Z,100675.34
2022-12-11T07:33:37.964Z,100682.75
2022-12-11T07:36:06.665Z,100677.81
2022-12-11T07:38:33.824Z,100681.88
2022-12-11T07:41:08.311Z,100681.22
2022-12-11T07:43:35.758Z,100687.50
2022-12-11T07:46:03.990Z,100687.09
2022-12-11T07:48:31.441Z,100686.63
2022-12-11T07:51:26.505Z,100687.19
2022-12-11T07:53:55.323Z,100691.50
2022-12-11T07:56:22.454Z,100691.78
2022-12-11T07:58:50.192Z,100695.50
2022-12-11T08:01:29.226Z,100693.31
2022-12-11T08:03:57.012Z,100693.00
2022-12-11T08:06:29.689Z,100691.34
2022-12-11T08:08:57.778Z,100696.16
2022-12-11T08:11:25.403Z,100703.22
2022-12-11T08:13:52.599Z,100701.06
2022-12-11T08:16:20.090Z,100692.81
2022-12-11T08:18:47.770Z,100696.34
2022-12-11T08:21:20.662Z,100700.22
2022-12-11T08:23:48.211Z,100686.88
2022-12-11T08:26:19.108Z,100692.34
2022-12-11T08:28:45.936Z,100686.56
2022-12-11T08:31:14.592Z,100693.44
2022-12-11T08:33:42.104Z,100692.56
2022-12-11T08:36:11.419Z,100697.41
2022-12-11T08:38:38.326Z,100690.47
2022-12-11T08:41:19.389Z,100700.88
2022-12-11T08:43:46.914Z,100704.22
2022-12-11T08:46:14.164Z,100702.19
2022-12-11T08:48:42.245Z,100695.25
2022-12-11T08:51:12.913Z,100694.25
2022-12-11T08:53:40.346Z,100694.41
2022-12-11T08:56:14.816Z,100682.38
2022-12-11T08:58:42.451Z,100687.38
2022-12-11T09:01:18.189Z,100684.03
2022-12-11T09:03:45.154Z,100694.78
2022-12-11T09:06:14.025Z,100688.34
2022-12-11T09:08:42.554Z,100681.16
2022-12-11T09:11:14.569Z,100685.44
2022-12-11T09:13:42.074Z,100687.09
2022-12-11T09:16:11.565Z,100691.75
2022-12-11T09:18:39.307Z,100688.88
2022-12-11T09:21:08.916Z,100686.16
2022-12-11T09:23:38.861Z,100677.88
2022-12-11T09:26:07.025Z,100687.84
2022-12-11T09:28:34.656Z,100683.59
2022-12-11T09:31:01.893Z,100680.84
2022-12-11T09:33:28.775Z,100683.53
2022-12-11T09:36:02.861Z,100674.00
2022-12-11T09:38:33.125Z,100671.44
2022-12-11T09:41:00.344Z,100679.63
2022-12-11T09:43:50.442Z,100677.19
2022-12-11T09:46:24.709Z,100678.69
2022-12-11T09:48:53.737Z,100677.16
2022-12-11T09:51:28.345Z,100687.00
2022-12-11T09:53:56.772Z,100677.31
2022-12-11T09:56:50.862Z,100687.59
2022-12-11T09:59:33.175Z,100678.63
2022-12-11T10:02:26.557Z,100676.69
2022-12-11T10:05:17.853Z,100672.63
2022-12-11T10:07:52.341Z,100665.81
2022-12-11T10:10:31.563Z,100669.84
2022-12-11T10:13:04.444Z,100666.41
2022-12-11T10:16:02.189Z,100651.75
2022-12-11T10:18:29.997Z,100657.81
2022-12-11T10:20:57.236Z,100646.19
2022-12-11T10:23:57.321Z,100647.28
2022-12-11T10:26:25.354Z,100639.13
2022-12-11T10:28:52.134Z,100646.91
2022-12-11T10:31:56.122Z,100642.00
2022-12-11T10:34:26.100Z,100639.34
2022-12-11T10:37:00.181Z,100634.66
2022-12-11T10:39:27.769Z,100634.03
2022-12-11T10:41:55.735Z,100628.22
2022-12-11T10:44:28.114Z,100638.41
2022-12-11T10:47:09.732Z,100630.28
2022-12-11T10:49:38.244Z,100625.44
2022-12-11T10:52:36.006Z,100638.94
2022-12-11T10:55:06.417Z,100639.63
2022-12-11T10:57:35.587Z,100634.59
2022-12-11T11:00:05.091Z,100627.50
2022-12-11T11:02:34.448Z,100628.59
2022-12-11T11:05:12.762Z,100631.72
2022-12-11T11:07:40.018Z,100624.97
2022-12-11T11:10:06.917Z,100620.91
2022-12-11T11:12:50.309Z,100629.31
2022-12-11T11:15:25.248Z,100627.88
2022-12-11T11:17:56.317Z,100618.66
2022-12-11T11:20:28.549Z,100624.72
2022-12-11T11:23:12.244Z,100625.28
2022-12-11T11:25:39.164Z,100624.09
2022-12-11T11:28:11.390Z,100623.47
2022-12-11T11:30:42.429Z,100623.00
2022-12-11T11:33:20.485Z,100621.50
2022-12-11T11:36:04.743Z,100632.69
2022-12-11T11:38:39.815Z,100629.09
2022-12-11T11:41:15.767Z,100632.59
2022-12-11T11:43:51.670Z,100625.75
2022-12-11T11:46:29.895Z,100624.31
2022-12-11T11:49:25.152Z,100620.25
2022-12-11T11:52:00.064Z,100613.75
2022-12-11T11:54:54.799Z,100615.66
2022-12-11T11:57:27.811Z,100613.78
2022-12-11T11:59:57.546Z,100605.22
2022-12-11T12:02:24.294Z,100607.13
2022-12-11T12:04:52.150Z,100603.84
2022-12-11T12:07:47.821Z,100596.00
2022-12-11T12:10:27.001Z,100593.56
2022-12-11T12:13:44.716Z,100590.22
2022-12-11T12:16:43.773Z,100589.81
2022-12-11T12:19:07.965Z,100580.56
2022-12-11T12:21:36.966Z,100577.97
2022-12-11T12:24:31.376Z,100572.88
2022-12-11T12:27:50.878Z,100566.72
2022-12-11T12:30:16.115Z,100559.22
2022-12-11T12:33:09.764Z,100553.41
2022-12-11T12:35:38.977Z,100563.88
2022-12-11T12:38:06.991Z,100564.19
2022-12-11T12:40:41.358Z,100568.31
2022-12-11T12:43:29.537Z,100556.22
2022-12-11T12:46:04.508Z,100563.75
2022-12-11T12:48:31.581Z,100562.19
2022-12-11T12:50:58.900Z,100557.31
2022-12-11T12:53:29.529Z,100561.16
2022-12-11T12:55:56.847Z,100566.56
2022-12-11T12:58:35.957Z,100564.59
2022-12-11T13:01:14.265Z,100564.75
2022-12-11T13:04:04.171Z,100559.06
2022-12-11T13:06:47.875Z,100563.41
2022-12-11T13:09:24.448Z,100564.78
2022-12-11T13:11:57.880Z,100570.22
2022-12-11T13:14:30.347Z,100566.69
2022-12-11T13:17:28.853Z,100566.06
2022-12-11T13:20:18.044Z,100573.97
2022-12-11T13:23:19.139Z,100569.66
2022-12-11T13:25:52.501Z,100568.75
2022-12-11T13:28:39.846Z,100567.34
2022-12-11T13:31:19.114Z,100572.06
2022-12-11T13:33:51.574Z,100569.44
2022-12-11T13:36:24.118Z,100578.47
2022-12-11T13:39:05.796Z,100571.56
2022-12-11T13:41:35.665Z,100570.00
2022-12-11T13:44:07.129Z,100573.81
2022-12-11T13:46:36.064Z,100580.59
2022-12-11T13:49:06.957Z,100573.28
2022-12-11T13:51:38.072Z,100573.97
2022-12-11T13:54:16.995Z,100577.53
2022-12-11T13:57:35.355Z,100566.72
2022-12-11T14:00:19.906Z,100555.16
2022-12-11T14:02:46.855Z,100568.38
2022-12-11T14:05:15.697Z,100564.25
2022-12-11T14:07:50.548Z,100562.94
2022-12-11T14:10:27.454Z,100567.91
2022-12-11T14:12:59.286Z,100571.41
2022-12-11T14:15:27.982Z,100563.38
2022-12-11T14:17:56.465Z,100568.38
2022-12-11T14:20:26.352Z,100569.97
2022-12-11T14:22:53.390Z,100567.75
2022-12-11T14:25:27.066Z,100567.31
2022-12-11T14:27:57.349Z,100567.09
2022-12-11T14:30:43.411Z,100571.88
2022-12-11T14:33:16.357Z,100567.63
2022-12-11T14:35:44.743Z,100573.38
2022-12-11T14:38:18.355Z,100573.78
2022-12-11T14:40:49.848Z,100570.44
2022-12-11T14:43:31.004Z,100570.31
2022-12-11T14:46:06.717Z,100570.44
2022-12-11T14:48:38.515Z,100569.41
2022-12-11T14:51:09.137Z,100570.59
2022-12-11T14:53:42.809Z,100559.84
2022-12-11T14:56:18.042Z,100566.41
2022-12-11T14:58:59.305Z,100562.66
2022-12-11T15:01:29.530Z,100569.50
2022-12-11T15:04:15.114Z,100572.47
2022-12-11T15:06:56.660Z,100575.25
2022-12-11T15:09:26.906Z,100580.25
2022-12-11T15:11:56.446Z,100580.25
2022-12-11T15:14:24.316Z,100576.00
2022-12-11T15:16:54.972Z,100583.78
2022-12-11T15:19:25.028Z,100578.50
2022-12-11T15:22:09.554Z,100585.50
2022-12-11T15:24:40.858Z,100578.72
2022-12-11T15:27:33.993Z,100584.47
2022-12-11T15:30:00.806Z,100581.53
2022-12-11T15:32:27.632Z,100582.00
2022-12-11T15:34:56.930Z,100582.44
2022-12-11T15:37:36.661Z,100585.41
2022-12-11T15:40:05.913Z,100586.84
2022-12-11T15:42:36.431Z,100589.16
2022-12-11T15:45:06.610Z,100584.16
2022-12-11T15:47:34.153Z,100588.34
2022-12-11T15:50:17.557Z,100596.28
2022-12-11T15:52:45.060Z,100598.03
2022-12-11T15:55:12.569Z,100580.81
2022-12-11T15:57:45.304Z,100585.25
2022-12-11T16:00:18.857Z,100593.09
2022-12-11T16:02:46.820Z,100589.41
2022-12-11T16:05:14.829Z,100585.47
2022-12-11T16:07:42.072Z,100606.56
2022-12-11T16:10:19.150Z,100594.91
2022-12-11T16:13:00.326Z,100590.78
2022-12-11T16:15:27.633Z,100595.00
2022-12-11T16:18:14.396Z,100595.63
2022-12-11T16:20:42.743Z,100592.81
2022-12-11T16:23:10.300Z,100596.53
2022-12-11T16:25:39.109Z,100591.53
2022-12-11T16:28:07.112Z,100587.31
2022-12-11T16:30:38.999Z,100597.56
2022-12-11T16:33:12.748Z,100588.09
2022-12-11T16:35:43.585Z,100580.69
2022-12-11T16:38:10.981Z,100575.16
2022-12-11T16:40:41.821Z,100577.00
2022-12-11T16:46:12.472Z,100582.22
2022-12-11T16:48:39.454Z,100588.97
2022-12-11T16:54:10.707Z,100584.50
2022-12-11T16:56:38.675Z,100582.00
2022-12-11T16:59:05.894Z,100576.28
2022-12-11T17:01:33.588Z,100578.22
2022-12-11T17:04:00.861Z,100577.09
2022-12-11T17:06:28.554Z,100581.63
2022-12-11T17:08:58.663Z,100573.03
2022-12-11T17:11:26.623Z,100576.84
2022-12-11T17:14:04.088Z,100574.56
2022-12-11T17:16:34.773Z,100575.38
2022-12-11T17:19:07.449Z,100580.69
2022-12-11T17:21:34.508Z,100573.22
2022-12-11T17:24:01.535Z,100565.13
2022-12-11T17:26:50.974Z,100567.91
2022-12-11T17:29:18.190Z,100570.00
2022-12-11T17:31:45.468Z,100571.88
2022-12-11T17:34:12.755Z,100569.78
2022-12-11T17:36:39.666Z,100573.88
2022-12-11T17:39:06.480Z,100564.84
2022-12-11T17:41:33.525Z,100565.41
2022-12-11T17:44:00.613Z,100571.31
2022-12-11T17:46:37.144Z,100564.88
2022-12-11T17:49:10.947Z,100566.22
2022-12-11T17:51:38.018Z,100563.88
2022-12-11T17:54:04.882Z,100569.31
2022-12-11T17:56:35.027Z,100574.09
2022-12-11T17:59:16.894Z,100570.78
2022-12-11T18:01:46.841Z,100560.25
2022-12-11T18:04:17.855Z,100546.00
2022-12-11T18:06:54.017Z,100569.59
2022-12-11T18:09:25.725Z,100568.31
2022-12-11T18:11:57.427Z,100571.94
2022-12-11T18:14:26.308Z,100559.03
2022-12-11T18:19:46.186Z,100573.47
2022-12-11T18:22:13.243Z,100583.81
2022-12-11T18:24:40.939Z,100581.84
2022-12-11T18:27:11.197Z,100582.16
2022-12-11T18:29:38.410Z,100582.69
2022-12-11T18:32:05.307Z,100578.22
2022-12-11T18:34:32.277Z,100589.72
2022-12-11T18:36:59.486Z,100586.13
2022-12-11T18:39:26.503Z,100574.44
2022-12-11T18:42:16.565Z,100578.66
2022-12-11T18:44:40.408Z,100582.00
2022-12-11T18:47:07.295Z,100581.00
2022-12-11T18:49:34.209Z,100584.09
2022-12-11T18:52:01.117Z,100576.66
2022-12-11T18:54:29.528Z,100581.19
2022-12-11T18:56:57.232Z,100580.84
2022-12-11T18:59:24.307Z,100573.28
2022-12-11T19:01:51.238Z,100577.06
2022-12-11T19:04:18.876Z,100583.16
2022-12-11T19:06:47.846Z,100587.22
2022-12-11T19:09:15.239Z,100571.31
2022-12-11T19:11:42.278Z,100587.06
2022-12-11T19:14:09.732Z,100584.28
2022-12-11T19:16:43.816Z,100581.00
2022-12-11T19:19:19.834Z,100591.78
2022-12-11T19:21:47.282Z,100593.38
2022-12-11T19:24:20.430Z,100582.25
2022-12-11T19:26:47.927Z,100580.16
2022-12-11T19:29:27.641Z,100596.66
2022-12-11T19:31:55.813Z,100575.88
2022-12-11T19:34:23.596Z,100587.84
2022-12-11T19:36:50.769Z,100579.59
2022-12-11T19:39:19.900Z,100584.69
2022-12-11T19:42:01.744Z,100591.97
2022-12-11T19:47:46.505Z,100578.69
2022-12-11T19:50:13.447Z,100594.25
2022-12-11T19:52:45.805Z,100587.06
2022-12-11T19:55:15.224Z,100594.66
2022-12-11T19:57:42.326Z,100584.44
2022-12-11T20:00:09.720Z,100597.88
2022-12-11T20:02:39.165Z,100599.38
2022-12-11T20:05:06.885Z,100584.59
2022-12-11T20:07:33.907Z,100585.56
2022-12-11T20:10:06.494Z,100595.25
2022-12-11T20:12:34.609Z,100591.31
2022-12-11T20:15:06.320Z,100594.44
2022-12-11T20:18:03.532Z,100584.53
2022-12-11T20:20:33.709Z,100592.84
2022-12-11T20:23:01.112Z,100590.44
2022-12-11T20:25:28.384Z,100584.56
2022-12-11T20:28:00.662Z,100585.91
2022-12-11T20:30:27.560Z,100591.00
2022-12-11T20:32:54.421Z,100587.78
2022-12-11T20:35:21.548Z,100584.03
2022-12-11T20:37:48.408Z,100591.56
2022-12-11T20:40:15.419Z,100597.25
2022-12-11T20:42:42.802Z,100590.38
2022-12-11T20:45:10.893Z,100595.06
2022-12-11T20:47:38.496Z,100596.91
2022-12-11T20:50:07.176Z,100608.88
2022-12-11T20:52:36.651Z,100598.78
2022-12-11T20:55:04.988Z,100604.69
2022-12-11T20:57:32.649Z,100597.44
2022-12-11T20:59:59.514Z,100601.47
2022-12-11T21:02:26.503Z,100603.31
2022-12-11T21:04:53.548Z,100598.53
2022-12-11T21:07:22.484Z,100607.59
2022-12-11T21:09:49.589Z,100612.66
2022-12-11T21:12:17.547Z,100603.06
2022-12-11T21:14:45.666Z,100611.59
2022-12-11T21:17:14.021Z,100612.69
2022-12-11T21:19:43.121Z,100613.50
2022-12-11T21:22:10.390Z,100615.38
2022-12-11T21:24:37.448Z,100610.53
2022-12-11T21:27:04.635Z,100611.88
2022-12-11T21:29:31.668Z,100620.16
2022-12-11T21:31:58.760Z,100620.63
2022-12-11T21:34:26.505Z,100608.94
2022-12-11T21:36:56.926Z,100618.84
2022-12-11T21:39:25.421Z,100621.22
2022-12-11T21:41:53.055Z,100625.00
2022-12-11T21:47:09.942Z,100609.78
2022-12-11T21:49:37.545Z,100617.34
2022-12-11T21:52:15.622Z,100626.25
2022-12-11T21:54:45.977Z,100616.50
2022-12-11T21:57:12.893Z,100616.84
2022-12-11T21:59:39.661Z,100613.53
2022-12-11T22:02:06.671Z,100619.66
2022-12-11T22:04:33.840Z,100618.13
2022-12-11T22:07:00.958Z,100624.75
2022-12-11T22:09:27.830Z,100625.25
2022-12-11T22:11:58.316Z,100621.44
2022-12-11T22:14:25.736Z,100622.47
2022-12-11T22:16:52.542Z,100628.28
2022-12-11T22:19:19.381Z,100617.06
2022-12-11T22:21:46.569Z,100615.72
2022-12-11T22:24:14.216Z,100624.97
2022-12-11T22:26:41.005Z,100628.78
2022-12-11T22:29:08.025Z,100626.31
2022-12-11T22:31:34.881Z,100620.78
2022-12-11T22:34:01.748Z,100631.44
2022-12-11T22:36:28.595Z,100641.47
2022-12-11T22:38:55.606Z,100641.53
2022-12-11T22:41:28.423Z,100644.47
2022-12-11T22:43:55.825Z,100643.38
2022-12-11T22:46:25.062Z,100651.31
2022-12-11T22:48:52.170Z,100652.25
2022-12-11T22:51:19.410Z,100657.66
2022-12-11T22:53:46.321Z,100654.06
2022-12-11T22:56:13.899Z,100636.41
2022-12-11T22:58:41.051Z,100638.56
2022-12-11T23:01:12.965Z,100631.31
2022-12-11T23:03:39.794Z,100640.16
2022-12-11T23:06:12.237Z,100646.34
2022-12-11T23:08:39.782Z,100649.03
2022-12-11T23:11:12.040Z,100645.91
2022-12-11T23:13:40.048Z,100657.81
2022-12-11T23:16:08.454Z,100649.41
2022-12-11T23:18:35.394Z,100648.19
2022-12-11T23:21:02.495Z,100656.22
2022-12-11T23:23:29.240Z,100653.72
2022-12-11T23:25:56.780Z,100661.69
2022-12-11T23:28:23.764Z,100658.88
2022-12-11T23:30:50.811Z,100660.94
2022-12-11T23:33:17.719Z,100662.69
2022-12-11T23:35:45.450Z,100659.31
2022-12-11T23:38:12.281Z,100649.56
2022-12-11T23:40:39.537Z,100657.88
2022-12-11T23:43:10.282Z,100647.69
2022-12-11T23:45:37.079Z,100653.84
2022-12-11T23:48:03.951Z,100656.13
2022-12-11T23:50:32.935Z,100659.38
2022-12-11T23:52:59.835Z,100659.84
2022-12-11T23:55:29.390Z,100651.88
2022-12-11T23:57:58.123Z,100654.53
